Time;durP1;ratioP1;P1;durP2;ratioP2;P2;SDS_P1;SDS_P2;PMS_P1;PMS_P2;Temp;Humidity;BMP_temperature;BMP_pressure;BME280_temperature;BME280_humidity;BME280_pressure;Samples;Min_cycle;Max_cycle;Signal;HPM_P1;HPM_P2
2020/12/26 00:01:08;;;;;;;17.73;8.52;;;;;;;5.64;69.35;102673.22;5036995;28;20025;-80
2020/12/26 00:03:35;;;;;;;15.45;8.93;;;;;;;5.59;69.81;102673.06;5036530;28;20025;-80
2020/12/26 00:06:01;;;;;;;20.77;8.32;;;;;;;5.60;69.31;102672.22;5037719;28;20040;-80
2020/12/26 00:08:27;;;;;;;15.52;8.23;;;;;;;5.67;69.53;102670.69;5033038;28;20033;-80
2020/12/26 00:10:54;;;;;;;17.70;7.75;;;;;;;5.69;69.17;102671.63;5037722;28;20040;-80
2020/12/26 00:13:21;;;;;;;12.98;6.30;;;;;;;5.65;69.45;102675.88;5043162;28;20099;-80
2020/12/26 00:15:47;;;;;;;17.50;5.88;;;;;;;5.57;70.07;102685.31;5036304;28;20030;-80
2020/12/26 00:18:13;;;;;;;10.32;5.28;;;;;;;5.75;69.91;102684.06;5030422;28;20029;-80
2020/12/26 00:20:40;;;;;;;11.20;5.30;;;;;;;5.75;69.89;102684.06;5030589;28;20026;-79
2020/12/26 00:23:06;;;;;;;9.15;5.00;;;;;;;5.77;70.12;102680.63;5032128;28;20144;-80
2020/12/26 00:25:32;;;;;;;10.68;4.43;;;;;;;5.75;70.61;102669.16;5033476;28;20030;-80
2020/12/26 00:27:59;;;;;;;20.35;3.28;;;;;;;5.77;70.54;102671.84;5034047;28;20038;-80
2020/12/26 00:30:25;;;;;;;7.03;3.30;;;;;;;5.80;70.83;102675.44;5040628;28;20037;-80
2020/12/26 00:32:51;;;;;;;8.43;3.03;;;;;;;5.83;71.25;102667.66;5037160;28;20472;-80
2020/12/26 00:37:52;;;;;;;5.35;2.50;;;;;;;6.05;70.34;102646.38;5058412;28;20102;-79
2020/12/26 00:40:19;;;;;;;3.63;2.45;;;;;;;6.10;70.39;102657.91;5062661;28;20127;-80
2020/12/26 00:42:45;;;;;;;5.50;2.60;;;;;;;6.12;70.32;102659.72;5062484;28;20032;-80
2020/12/26 00:45:12;;;;;;;4.00;1.75;;;;;;;6.17;70.29;102661.59;5058757;28;20108;-82
2020/12/26 00:47:38;;;;;;;5.03;1.98;;;;;;;6.19;70.25;102655.50;5049635;28;20061;-82
2020/12/26 00:50:04;;;;;;;7.13;1.92;;;;;;;6.17;70.49;102656.31;5049653;28;20484;-81
2020/12/26 00:52:31;;;;;;;4.13;1.70;;;;;;;6.17;70.46;102661.59;5043132;28;20029;-79
2020/12/26 00:54:57;;;;;;;2.70;1.70;;;;;;;6.24;70.07;102659.19;5046951;28;20045;-78
2020/12/26 00:57:24;;;;;;;4.60;1.85;;;;;;;6.23;70.31;102657.41;5048437;28;20021;-79
2020/12/26 00:59:50;;;;;;;4.68;1.95;;;;;;;6.19;70.51;102660.78;5038345;28;20782;-79
2020/12/26 01:02:17;;;;;;;6.65;2.25;;;;;;;6.21;70.20;102647.69;5044336;28;20048;-80
2020/12/26 01:04:46;;;;;;;4.00;1.70;;;;;;;6.18;70.28;102643.22;5050398;28;20544;-81
2020/12/26 01:07:13;;;;;;;7.00;2.33;;;;;;;6.15;70.42;102638.75;5041339;28;20030;-81
2020/12/26 01:09:39;;;;;;;4.97;2.08;;;;;;;6.07;70.38;102640.28;5045863;28;20099;-80
2020/12/26 01:12:06;;;;;;;4.32;2.28;;;;;;;6.05;70.31;102636.72;5048492;28;20025;-76
2020/12/26 01:14:33;;;;;;;5.95;2.25;;;;;;;6.05;70.68;102641.97;5048853;28;20078;-80
2020/12/26 01:17:00;;;;;;;5.78;2.33;;;;;;;5.98;70.71;102639.97;5046587;28;20029;-79
2020/12/26 01:19:27;;;;;;;5.28;2.60;;;;;;;5.98;70.67;102639.97;5043746;28;20048;-79
2020/12/26 01:21:54;;;;;;;6.20;2.97;;;;;;;5.83;71.09;102635.19;5049284;28;20029;-79
2020/12/26 01:24:21;;;;;;;6.32;2.90;;;;;;;5.88;70.81;102637.94;5050699;28;20032;-79
2020/12/26 01:26:49;;;;;;;12.52;3.63;;;;;;;5.82;71.50;102639.56;5049647;28;20033;-80
2020/12/26 01:29:16;;;;;;;8.50;3.35;;;;;;;5.83;71.32;102637.81;5051758;28;20063;-80
2020/12/26 01:31:47;;;;;;;12.98;4.03;;;;;;;5.78;71.63;102628.91;5049364;28;20032;-79
2020/12/26 01:34:14;;;;;;;8.30;3.47;;;;;;;5.75;71.27;102631.47;5045835;28;20029;-81
2020/12/26 01:36:40;;;;;;;3.95;2.90;;;;;;;5.67;71.35;102629.50;5018082;28;20183;-78
2020/12/26 01:39:07;;;;;;;9.57;3.60;;;;;;;5.70;71.42;102626.06;5049841;28;20116;-79
2020/12/26 01:41:34;;;;;;;9.77;2.88;;;;;;;5.72;71.26;102632.28;5046636;28;20491;-80
2020/12/26 01:44:02;;;;;;;7.05;3.00;;;;;;;5.65;71.34;102619.78;5052649;28;20051;-80
2020/12/26 01:46:32;;;;;;;6.93;2.92;;;;;;;5.61;71.89;102621.44;5048550;28;20086;-81
2020/12/26 01:49:00;;;;;;;7.22;2.65;;;;;;;5.60;71.50;102617.00;5048844;28;20021;-80
2020/12/26 01:51:30;;;;;;;5.43;2.72;;;;;;;5.56;71.77;102617.78;5052789;28;20048;-78
2020/12/26 01:53:57;;;;;;;6.40;2.60;;;;;;;5.60;71.69;102616.13;5052654;28;20021;-79
2020/12/26 01:56:27;;;;;;;12.32;2.80;;;;;;;5.60;71.70;102618.75;5033331;28;20095;-78
2020/12/26 01:58:54;;;;;;;8.57;2.80;;;;;;;5.53;72.03;102620.31;5050776;28;20021;-79
2020/12/26 02:01:38;;;;;;;4.78;2.22;;;;;;;5.63;71.79;102611.84;5043683;28;20026;-79
2020/12/26 02:04:05;;;;;;;9.73;2.75;;;;;;;5.54;72.00;102622.09;5042990;28;20030;-79
2020/12/26 02:06:37;;;;;;;4.43;2.30;;;;;;;5.59;71.80;102614.34;5049673;28;20025;-86
2020/12/26 02:09:05;;;;;;;7.43;2.15;;;;;;;5.53;71.54;102622.06;5043569;28;20052;-81
2020/12/26 02:11:32;;;;;;;3.97;1.88;;;;;;;5.51;71.94;102617.63;5048606;28;20032;-82
2020/12/26 02:13:58;;;;;;;5.47;1.70;;;;;;;5.49;71.64;102618.44;5047936;28;20070;-80
2020/12/26 02:16:25;;;;;;;4.60;1.80;;;;;;;5.39;72.01;102617.25;5049461;28;20547;-81
2020/12/26 02:18:52;;;;;;;12.75;1.75;;;;;;;5.47;71.67;102615.78;5051718;28;20035;-79
2020/12/26 02:21:22;;;;;;;4.05;1.80;;;;;;;5.47;71.39;102610.50;5050451;28;20028;-80
2020/12/26 02:23:49;;;;;;;10.15;1.63;;;;;;;5.47;71.50;102605.25;5046953;28;20051;-80
2020/12/26 02:26:15;;;;;;;2.58;1.63;;;;;;;5.50;71.12;102604.44;5051737;28;20047;-78
2020/12/26 02:28:42;;;;;;;8.93;1.48;;;;;;;5.45;71.37;102599.03;5049867;28;20075;-80
2020/12/26 02:31:08;;;;;;;9.80;1.48;;;;;;;5.47;71.60;102593.81;5047138;28;20104;-81
2020/12/26 02:33:35;;;;;;;5.20;1.30;;;;;;;5.54;71.44;102587.91;5045093;28;20033;-79
2020/12/26 02:36:02;;;;;;;11.00;1.73;;;;;;;5.49;71.08;102582.50;5030685;28;20044;-79
2020/12/26 02:38:33;;;;;;;5.32;1.10;;;;;;;5.51;71.21;102569.44;5050285;28;21209;-79
2020/12/26 02:41:02;;;;;;;3.88;1.20;;;;;;;5.57;71.08;102569.59;5046161;28;20111;-80
2020/12/26 02:43:31;;;;;;;7.88;1.80;;;;;;;5.54;71.01;102558.09;5036385;28;20039;-79
2020/12/26 02:45:57;;;;;;;3.72;1.10;;;;;;;5.55;70.99;102557.25;5043461;28;20017;-79
2020/12/26 02:48:24;;;;;;;6.45;1.40;;;;;;;5.53;70.62;102545.81;5048073;28;20074;-79
2020/12/26 02:50:50;;;;;;;2.47;1.40;;;;;;;5.48;71.04;102543.94;5049424;28;20104;-81
2020/12/26 02:53:17;;;;;;;3.90;1.88;;;;;;;5.47;71.07;102536.91;5044924;28;20051;-79
2020/12/26 02:55:43;;;;;;;5.03;1.40;;;;;;;5.44;70.62;102526.28;5048304;28;20111;-80
2020/12/26 02:58:10;;;;;;;2.70;1.45;;;;;;;5.45;70.57;102511.41;5049867;28;20426;-81
2020/12/26 03:00:36;;;;;;;5.68;1.50;;;;;;;5.43;70.46;102498.22;5047995;28;20052;-79
2020/12/26 03:03:04;;;;;;;5.38;1.80;;;;;;;5.40;70.57;102503.38;5039636;28;20519;-79
2020/12/26 03:05:30;;;;;;;3.47;1.88;;;;;;;5.40;70.53;102498.13;5042293;28;20051;-79
2020/12/26 03:07:57;;;;;;;5.32;1.70;;;;;;;5.42;70.73;102485.03;5044816;28;20036;-79
2020/12/26 03:10:23;;;;;;;6.05;2.00;;;;;;;5.40;70.79;102482.38;5048995;28;20021;-80
2020/12/26 03:12:49;;;;;;;4.78;2.17;;;;;;;5.43;70.68;102479.84;5047349;28;20029;-81
2020/12/26 03:15:16;;;;;;;6.03;2.00;;;;;;;5.40;70.28;102469.22;5025772;28;20037;-81
2020/12/26 03:17:42;;;;;;;8.07;1.73;;;;;;;5.41;70.39;102467.47;5046463;28;20059;-81
2020/12/26 03:20:09;;;;;;;3.55;1.80;;;;;;;5.40;70.33;102461.34;5050302;28;20047;-81
2020/12/26 03:22:35;;;;;;;4.53;1.58;;;;;;;5.41;70.52;102468.38;5026640;28;20041;-81
2020/12/26 03:25:02;;;;;;;8.85;2.03;;;;;;;5.39;70.62;102475.31;5044192;28;20033;-81
2020/12/26 03:27:29;;;;;;;4.47;1.55;;;;;;;5.34;70.35;102471.69;5049939;28;20025;-80
2020/12/26 03:29:55;;;;;;;10.88;1.90;;;;;;;5.37;70.00;102474.41;5038524;28;20037;-81
2020/12/26 03:32:22;;;;;;;4.28;1.83;;;;;;;5.36;70.28;102483.13;5038312;28;20036;-81
2020/12/26 03:34:49;;;;;;;4.15;2.00;;;;;;;5.31;70.23;102476.88;5039070;28;20055;-80
2020/12/26 03:37:16;;;;;;;5.32;1.38;;;;;;;5.29;70.05;102483.81;5032809;28;20374;-79
2020/12/26 03:39:42;;;;;;;4.55;1.27;;;;;;;5.28;70.37;102484.66;5036413;28;20542;-78
2020/12/26 03:42:11;;;;;;;2.00;1.17;;;;;;;5.28;70.04;102482.00;5036052;28;20037;-78
2020/12/26 03:44:42;;;;;;;4.13;1.33;;;;;;;5.28;70.57;102482.00;5040038;28;20017;-79
2020/12/26 03:47:10;;;;;;;8.45;1.30;;;;;;;5.27;70.59;102478.50;5040796;28;20053;-79
2020/12/26 03:49:37;;;;;;;3.17;1.45;;;;;;;5.30;70.50;102488.22;5035898;28;20235;-79
2020/12/26 03:52:04;;;;;;;7.28;1.38;;;;;;;5.28;70.40;102479.38;5038983;28;20021;-80
2020/12/26 03:54:31;;;;;;;14.45;1.40;;;;;;;5.30;70.32;102481.22;5039422;28;20563;-79
2020/12/26 03:56:57;;;;;;;5.10;1.35;;;;;;;5.32;70.64;102482.16;5040737;28;20041;-79
2020/12/26 03:59:24;;;;;;;4.22;1.27;;;;;;;5.29;70.89;102486.44;5043085;28;20029;-79
2020/12/26 04:01:50;;;;;;;6.50;1.55;;;;;;;5.34;70.85;102475.19;5014379;28;20029;-79
2020/12/26 04:04:17;;;;;;;2.95;1.52;;;;;;;5.32;70.43;102473.34;5040207;28;20036;-79
2020/12/26 04:06:44;;;;;;;3.55;1.55;;;;;;;5.37;70.57;102471.78;5053443;28;20033;-80
2020/12/26 04:09:11;;;;;;;5.35;1.15;;;;;;;5.37;70.37;102463.88;5045413;28;20419;-79
2020/12/26 04:11:38;;;;;;;4.55;1.48;;;;;;;5.37;70.32;102462.97;5045913;28;20468;-79
2020/12/26 04:14:04;;;;;;;10.50;1.38;;;;;;;5.34;70.45;102456.78;5046875;28;20035;-79
2020/12/26 04:16:31;;;;;;;4.20;1.08;;;;;;;5.34;70.36;102463.78;5055196;28;20395;-80
2020/12/26 04:18:58;;;;;;;5.40;1.10;;;;;;;5.29;70.23;102458.41;5049585;28;20040;-80
2020/12/26 04:21:26;;;;;;;5.82;1.05;;;;;;;5.27;70.59;102454.84;5043179;28;20034;-79
2020/12/26 04:23:53;;;;;;;9.10;1.80;;;;;;;5.23;70.76;102458.22;5046497;28;20033;-79
2020/12/26 04:26:20;;;;;;;10.48;2.00;;;;;;;5.21;70.49;102453.78;5053743;28;20033;-79
2020/12/26 04:28:47;;;;;;;8.15;1.35;;;;;;;5.17;70.96;102443.19;5055124;28;20091;-79
2020/12/26 04:31:14;;;;;;;5.15;1.40;;;;;;;5.08;71.12;102435.03;5046858;28;20080;-79
2020/12/26 04:33:40;;;;;;;2.72;0.90;;;;;;;5.13;70.83;102436.06;5047596;28;20112;-80
2020/12/26 04:36:07;;;;;;;5.97;1.13;;;;;;;4.97;71.16;102436.47;5040952;28;20069;-79
2020/12/26 04:38:34;;;;;;;4.80;1.13;;;;;;;5.05;70.88;102442.84;5046532;28;20061;-79
2020/12/26 04:41:01;;;;;;;4.55;1.35;;;;;;;5.11;71.02;102437.75;5051674;28;20037;-80
2020/12/26 04:43:29;;;;;;;3.63;1.17;;;;;;;5.16;70.69;102435.28;5047010;28;20037;-78
2020/12/26 04:45:56;;;;;;;3.28;1.05;;;;;;;5.08;70.88;102426.28;5049851;28;20034;-79
2020/12/26 04:48:27;;;;;;;4.18;1.35;;;;;;;5.17;70.89;102422.16;5053130;28;20029;-80
2020/12/26 04:51:00;;;;;;;2.55;1.17;;;;;;;5.21;70.76;102411.72;5055433;28;20605;-79
2020/12/26 04:53:32;;;;;;;1.77;0.90;;;;;;;5.29;70.65;102403.22;5037923;28;20468;-81
2020/12/26 04:56:02;;;;;;;3.65;1.08;;;;;;;5.30;70.68;102401.50;5041664;28;20108;-79
2020/12/26 04:58:29;;;;;;;7.82;1.27;;;;;;;5.23;70.39;102404.78;5048403;28;20116;-79
2020/12/26 05:00:56;;;;;;;4.45;1.00;;;;;;;5.11;70.78;102394.81;5052460;28;20032;-80
2020/12/26 05:03:26;;;;;;;9.15;1.58;;;;;;;5.15;71.19;102413.34;5052182;28;20099;-79
2020/12/26 05:06:02;;;;;;;7.32;1.20;;;;;;;5.17;71.20;102411.66;5050825;28;20567;-80
2020/12/26 05:08:28;;;;;;;5.07;0.98;;;;;;;5.18;70.99;102413.44;5044368;28;20044;-79
2020/12/26 05:10:56;;;;;;;3.50;0.95;;;;;;;5.35;70.71;102395.47;5039464;28;20115;-79
2020/12/26 05:13:22;;;;;;;9.38;1.30;;;;;;;5.42;71.03;102388.66;5047284;28;20021;-80
2020/12/26 05:15:48;;;;;;;6.85;1.08;;;;;;;5.39;71.05;102401.72;5037108;28;20116;-78
2020/12/26 05:18:14;;;;;;;13.70;2.65;;;;;;;5.48;70.73;102398.44;5040232;28;20033;-78
2020/12/26 05:20:42;;;;;;;4.82;1.20;;;;;;;5.49;70.90;102389.72;5048306;28;20025;-81
2020/12/26 05:23:12;;;;;;;12.32;1.30;;;;;;;5.53;70.64;102385.41;5050888;28;20029;-79
2020/12/26 05:25:41;;;;;;;3.20;1.02;;;;;;;5.42;70.65;102380.78;5051398;28;20100;-80
2020/12/26 05:28:10;;;;;;;2.85;1.00;;;;;;;5.51;70.43;102385.38;5050862;28;20032;-79
2020/12/26 05:30:38;;;;;;;5.90;1.58;;;;;;;5.49;70.38;102382.69;5044927;28;20049;-79
2020/12/26 05:33:07;;;;;;;5.78;1.08;;;;;;;5.58;70.08;102386.44;5040159;28;20037;-81
2020/12/26 05:35:37;;;;;;;3.30;0.90;;;;;;;5.56;70.42;102382.84;5037221;28;20030;-79
2020/12/26 05:38:24;;;;;;;12.10;2.00;;;;;;;5.51;70.80;102386.25;5036363;28;20506;-78
2020/12/26 05:40:55;;;;;;;3.97;1.35;;;;;;;5.56;70.70;102377.59;5042782;28;20037;-79
2020/12/26 05:43:23;;;;;;;8.57;1.45;;;;;;;5.59;70.31;102377.69;5028610;28;20037;-79
2020/12/26 05:45:50;;;;;;;6.18;1.30;;;;;;;5.49;70.98;102382.69;5039525;28;20036;-79
2020/12/26 05:48:19;;;;;;;4.78;1.63;;;;;;;5.57;70.74;102385.56;5034696;28;20061;-80
2020/12/26 05:50:46;;;;;;;10.38;1.92;;;;;;;5.56;70.70;102377.59;5038164;28;20485;-79
2020/12/26 05:53:14;;;;;;;5.07;1.17;;;;;;;5.68;70.40;102372.66;5041707;28;20026;-82
2020/12/26 05:55:42;;;;;;;5.72;1.38;;;;;;;5.66;70.71;102384.88;5040090;28;20021;-79
2020/12/26 05:58:10;;;;;;;4.78;1.42;;;;;;;5.63;70.92;102379.53;5045112;28;20061;-82
2020/12/26 06:00:38;;;;;;;2.85;1.38;;;;;;;5.70;70.55;102384.09;5046976;28;20022;-79
2020/12/26 06:06:07;;;;;;;4.05;1.00;;;;;;;5.77;70.76;102372.91;5117221;27;20369;-79
2020/12/26 06:08:33;;;;;;;4.50;1.20;;;;;;;5.73;71.04;102365.78;5119968;28;20107;-80
2020/12/26 06:11:01;;;;;;;5.70;1.40;;;;;;;5.80;70.50;102362.44;5115153;28;20081;-80
2020/12/26 06:13:30;;;;;;;2.28;1.17;;;;;;;5.70;71.33;102359.56;5114023;28;20070;-79
2020/12/26 06:16:18;;;;;;;6.30;1.40;;;;;;;5.82;70.83;102362.50;5127966;27;20482;-81
2020/12/26 06:18:59;;;;;;;6.50;1.20;;;;;;;5.81;71.18;102369.47;5110019;27;20085;-79
2020/12/26 06:21:26;;;;;;;3.05;1.30;;;;;;;5.88;71.17;102369.63;5098046;28;20131;-80
2020/12/26 06:23:53;;;;;;;7.97;1.70;;;;;;;5.88;70.99;102367.00;5111109;28;20039;-81
2020/12/26 06:26:20;;;;;;;8.48;1.70;;;;;;;5.82;71.01;102362.50;5119400;28;20405;-79
2020/12/26 06:28:47;;;;;;;5.63;1.55;;;;;;;5.71;71.73;102364.84;5124621;27;20031;-80
2020/12/26 06:31:15;;;;;;;7.30;1.70;;;;;;;5.90;70.82;102358.28;5117746;28;20024;-79
2020/12/26 06:33:49;;;;;;;6.05;2.10;;;;;;;6.01;70.57;102361.22;5102211;28;20391;-80
2020/12/26 06:36:15;;;;;;;7.97;1.25;;;;;;;6.02;70.23;102352.47;5102706;28;20101;-80
2020/12/26 06:38:43;;;;;;;6.32;1.70;;;;;;;6.03;70.19;102359.50;5113897;27;20640;-80
2020/12/26 06:41:15;;;;;;;6.53;1.38;;;;;;;5.99;70.45;102352.38;5115485;28;20110;-81
2020/12/26 06:43:51;;;;;;;11.63;2.42;;;;;;;5.91;70.84;102348.66;5113661;28;20049;-80
2020/12/26 06:49:01;;;;;;;5.50;1.35;;;;;;;5.89;71.02;102345.09;5109478;27;20710;-79
2020/12/26 06:54:12;;;;;;;5.95;1.83;;;;;;;6.13;70.39;102350.97;5078105;27;20452;-80
2020/12/26 06:59:32;;;;;;;4.68;1.80;;;;;;;6.29;70.21;102356.56;5072247;27;20965;-78
2020/12/26 07:02:08;;;;;;;5.72;1.77;;;;;;;6.16;70.53;102355.41;5069427;28;20388;-78
2020/12/26 07:04:38;;;;;;;13.25;2.40;;;;;;;6.07;70.68;102353.47;5070029;28;20027;-80
2020/12/26 07:07:04;;;;;;;4.45;1.92;;;;;;;6.18;70.34;102356.34;5064401;28;20032;-78
2020/12/26 07:12:40;;;;;;;7.25;2.15;;;;;;;6.07;70.88;102357.81;5080542;27;20412;-79
2020/12/26 07:15:06;;;;;;;4.43;1.90;;;;;;;6.24;70.27;102358.22;5069867;28;20029;-79
2020/12/26 07:17:32;;;;;;;12.95;3.08;;;;;;;6.04;70.97;102348.13;5058140;28;20393;-79
2020/12/26 07:19:59;;;;;;;4.18;2.47;;;;;;;6.23;70.25;102343.25;5055736;28;20043;-79
2020/12/26 07:25:08;;;;;;;8.93;2.80;;;;;;;6.28;70.21;102344.25;5073830;27;20642;-79
2020/12/26 07:27:38;;;;;;;7.75;2.45;;;;;;;6.21;70.35;102347.63;5050851;28;20033;-80
2020/12/26 07:32:58;;;;;;;10.50;4.30;;;;;;;6.23;71.27;102341.53;5113809;27;20398;-79
2020/12/26 07:40:46;;;;;;;5.35;3.50;;;;;;;6.39;70.50;102326.06;5067893;28;20349;-77
2020/12/26 07:43:15;;;;;;;9.32;3.40;;;;;;;6.28;70.78;102312.66;5056206;28;20060;-77
2020/12/26 07:45:43;;;;;;;7.60;3.55;;;;;;;6.43;70.37;102313.00;5047617;28;20051;-77
2020/12/26 07:48:11;;;;;;;8.77;3.92;;;;;;;6.27;71.13;102319.69;5069857;28;20029;-78
2020/12/26 07:50:39;;;;;;;13.60;3.72;;;;;;;6.26;71.25;102324.94;5069874;28;20052;-78
2020/12/26 07:53:08;;;;;;;9.25;4.47;;;;;;;6.36;70.79;102305.84;5069535;28;20108;-78
2020/12/26 07:55:35;;;;;;;13.00;4.20;;;;;;;6.14;71.74;102315.91;5060546;28;20033;-78
2020/12/26 07:58:05;;;;;;;8.10;3.63;;;;;;;6.26;71.11;102304.75;5063865;28;20116;-79
2020/12/26 08:00:34;;;;;;;9.20;4.40;;;;;;;6.19;71.50;102302.81;5054611;28;20039;-78
2020/12/26 08:03:03;;;;;;;7.90;3.58;;;;;;;6.19;71.51;102288.78;5056809;28;20473;-80
2020/12/26 08:05:37;;;;;;;12.80;3.92;;;;;;;6.28;71.14;102299.50;5054622;28;20113;-78
2020/12/26 08:08:23;;;;;;;6.57;4.20;;;;;;;6.27;71.40;102292.50;5049426;28;20108;-77
2020/12/26 08:11:05;;;;;;;8.93;4.30;;;;;;;6.31;71.08;102292.56;5060530;28;20044;-81
2020/12/26 08:13:31;;;;;;;8.77;3.83;;;;;;;6.30;71.07;102293.41;5055259;28;20029;-78
2020/12/26 08:16:05;;;;;;;8.20;4.15;;;;;;;6.15;71.24;102283.44;5068984;28;20027;-76
2020/12/26 08:18:32;;;;;;;13.80;4.05;;;;;;;6.18;71.37;102281.75;5055692;28;20488;-78
2020/12/26 08:20:59;;;;;;;7.47;4.03;;;;;;;6.08;71.78;102278.94;5054905;28;20032;-78
2020/12/26 08:23:25;;;;;;;11.00;5.03;;;;;;;6.31;71.13;102266.25;5049532;28;20029;-78
2020/12/26 08:25:59;;;;;;;11.13;4.47;;;;;;;6.19;71.76;102267.75;5051543;28;20076;-78
2020/12/26 08:28:27;;;;;;;10.88;4.10;;;;;;;6.18;71.73;102263.31;5057090;28;20058;-79
2020/12/26 08:30:55;;;;;;;11.57;4.35;;;;;;;6.19;71.56;102259.84;5055509;28;20060;-78
2020/12/26 08:36:23;;;;;;;13.93;5.03;;;;;;;6.26;71.53;102241.56;5073753;27;20430;-80
2020/12/26 08:39:00;;;;;;;10.73;4.13;;;;;;;6.18;71.71;102244.91;5039910;28;20411;-80
2020/12/26 08:41:26;;;;;;;9.93;4.57;;;;;;;6.27;71.70;102251.25;5041206;28;20428;-80
2020/12/26 08:43:53;;;;;;;7.05;4.18;;;;;;;6.41;71.27;102245.38;5040826;28;20041;-80
2020/12/26 08:46:23;;;;;;;8.13;4.60;;;;;;;6.46;70.84;102247.22;5045934;28;20552;-80
2020/12/26 08:48:50;;;;;;;12.55;4.25;;;;;;;6.28;71.60;102250.41;5048265;28;20029;-81
2020/12/26 08:51:23;;;;;;;9.40;4.22;;;;;;;6.45;70.92;102248.09;5040169;28;20080;-81
2020/12/26 08:53:51;;;;;;;13.95;4.50;;;;;;;6.58;70.64;102245.69;5046614;28;20056;-80
2020/12/26 08:56:34;;;;;;;9.13;4.05;;;;;;;6.54;71.02;102251.75;5048627;28;20380;-80
2020/12/26 08:59:01;;;;;;;8.32;3.67;;;;;;;6.59;70.66;102247.47;5040458;28;20036;-81
2020/12/26 09:01:27;;;;;;;10.45;3.85;;;;;;;6.66;70.34;102249.38;5045938;28;20060;-81
2020/12/26 09:03:56;;;;;;;8.93;4.25;;;;;;;6.70;70.12;102248.56;5048217;28;20037;-80
2020/12/26 09:06:39;;;;;;;8.27;4.30;;;;;;;6.73;69.68;102243.38;5039765;28;20079;-84
2020/12/26 09:09:24;;;;;;;8.45;3.88;;;;;;;6.67;69.75;102232.72;5049617;28;20033;-82
2020/12/26 09:12:06;;;;;;;8.07;3.85;;;;;;;6.72;69.25;102231.03;5042437;28;20029;-83
2020/12/26 09:14:32;;;;;;;8.82;3.50;;;;;;;6.57;69.68;102228.13;5047180;28;20029;-86
2020/12/26 09:17:00;;;;;;;11.10;3.95;;;;;;;6.71;69.62;102218.72;5048953;28;20373;-86
2020/12/26 09:19:27;;;;;;;10.55;3.88;;;;;;;6.67;69.43;102227.44;5048683;28;20053;-87
2020/12/26 09:22:07;;;;;;;5.45;3.30;;;;;;;6.68;68.89;102223.97;5049409;28;20021;-81
2020/12/26 09:24:33;;;;;;;7.07;2.97;;;;;;;6.41;69.85;102219.94;5049076;28;20468;-79
2020/12/26 09:27:01;;;;;;;5.45;2.80;;;;;;;6.57;69.13;102217.59;5048411;28;20056;-83
2020/12/26 09:29:29;;;;;;;7.82;3.13;;;;;;;6.55;69.23;102214.03;5040650;28;20026;-80
2020/12/26 09:31:55;;;;;;;4.97;2.88;;;;;;;6.38;69.86;102219.88;5044767;28;20064;-80
2020/12/26 09:34:25;;;;;;;10.70;3.35;;;;;;;6.62;69.08;102219.44;5041375;28;20083;-83
2020/12/26 09:37:07;;;;;;;10.20;3.55;;;;;;;6.66;68.90;102225.66;5049035;28;20036;-80
2020/12/26 09:39:34;;;;;;;13.85;4.50;;;;;;;6.45;69.59;102220.88;5049165;28;20022;-81
2020/12/26 09:42:00;;;;;;;10.13;3.03;;;;;;;6.60;69.22;102222.91;5048502;28;20128;-80
2020/12/26 09:44:27;;;;;;;5.10;2.72;;;;;;;6.60;69.25;102223.81;5030954;28;20045;-81
2020/12/26 09:47:03;;;;;;;10.32;2.10;;;;;;;6.56;69.06;102223.72;5036568;28;20041;-80
2020/12/26 09:49:30;;;;;;;3.50;2.45;;;;;;;6.50;69.18;102219.22;5034090;28;20029;-85
2020/12/26 09:51:56;;;;;;;6.03;2.15;;;;;;;6.57;69.12;102222.88;5034001;28;20030;-81
2020/12/26 09:54:22;;;;;;;7.18;2.60;;;;;;;6.59;68.84;102207.97;5034524;28;20126;-79
2020/12/26 09:56:49;;;;;;;6.63;2.38;;;;;;;6.52;69.16;102196.44;5035321;28;20048;-79
2020/12/26 09:59:15;;;;;;;6.95;2.85;;;;;;;6.64;68.96;102206.31;5035145;28;20037;-83
2020/12/26 10:01:42;;;;;;;6.85;2.45;;;;;;;6.52;69.03;102200.81;5034753;28;20041;-86
2020/12/26 10:04:08;;;;;;;6.13;2.55;;;;;;;6.60;69.04;102202.75;5024124;28;20034;-85
2020/12/26 10:06:34;;;;;;;9.35;2.42;;;;;;;6.55;69.15;102200.88;5017713;28;20187;-85
2020/12/26 10:09:00;;;;;;;4.07;2.22;;;;;;;6.76;68.59;102206.53;5020993;28;20030;-80
2020/12/26 10:11:29;;;;;;;6.38;2.67;;;;;;;6.78;68.27;102194.28;5021612;28;20034;-89
2020/12/26 10:13:56;;;;;;;11.30;4.75;;;;;;;6.71;68.44;102191.50;5025176;28;20167;-81
2020/12/26 10:16:22;;;;;;;6.30;2.42;;;;;;;6.64;68.48;102185.22;5019959;28;20049;-82
2020/12/26 10:18:48;;;;;;;8.70;2.85;;;;;;;6.73;68.32;102190.69;5030825;28;20358;-84
2020/12/26 10:21:16;;;;;;;4.80;2.53;;;;;;;6.64;68.65;102178.25;5027293;28;20117;-81
2020/12/26 10:23:43;;;;;;;9.48;3.20;;;;;;;6.76;68.58;102168.78;5028870;28;20037;-81
2020/12/26 10:26:10;;;;;;;6.50;2.83;;;;;;;6.93;68.21;102166.44;5033618;28;20030;-88
2020/12/26 10:28:36;;;;;;;10.27;2.80;;;;;;;6.96;68.20;102166.47;5029513;28;20037;-88
2020/12/26 10:31:03;;;;;;;5.63;2.63;;;;;;;6.89;68.22;102169.84;5030410;28;20033;-85
2020/12/26 10:33:29;;;;;;;9.82;3.38;;;;;;;6.93;67.83;102169.06;5032916;28;20045;-87
2020/12/26 10:35:56;;;;;;;5.05;3.00;;;;;;;6.87;68.04;102167.19;5033465;28;20041;-83
2020/12/26 10:38:22;;;;;;;6.35;2.70;;;;;;;6.83;68.30;102175.03;5034611;28;20052;-81
2020/12/26 10:40:48;;;;;;;12.75;3.10;;;;;;;6.93;67.62;102172.56;5034744;28;20413;-79
2020/12/26 10:43:16;;;;;;;8.90;3.80;;;;;;;6.94;68.04;102166.44;5034363;28;20067;-80
2020/12/26 10:45:43;;;;;;;5.78;3.28;;;;;;;6.97;67.93;102145.41;5020429;28;20038;-79
2020/12/26 10:48:09;;;;;;;5.53;2.97;;;;;;;6.83;68.31;102149.59;5034325;28;20040;-81
2020/12/26 10:50:35;;;;;;;7.00;3.55;;;;;;;6.93;68.22;102145.34;5034359;28;20436;-80
2020/12/26 10:53:01;;;;;;;8.85;3.60;;;;;;;6.93;67.73;102146.22;5034145;28;20025;-80
2020/12/26 10:55:27;;;;;;;6.40;3.08;;;;;;;6.95;68.14;102146.25;5033906;28;20468;-79
2020/12/26 10:57:53;;;;;;;10.77;3.53;;;;;;;6.99;68.22;102150.72;5027482;28;20082;-81
2020/12/26 11:00:21;;;;;;;11.93;3.33;;;;;;;7.04;67.58;102141.13;5025222;28;20022;-85
2020/12/26 11:02:48;;;;;;;8.95;3.42;;;;;;;6.97;67.92;102136.63;5030025;28;20037;-85
2020/12/26 11:05:14;;;;;;;8.63;3.15;;;;;;;7.08;67.62;102129.75;5029868;28;20041;-82
2020/12/26 11:07:41;;;;;;;7.95;2.83;;;;;;;7.05;67.63;102124.47;5022037;28;20038;-80
2020/12/26 11:10:07;;;;;;;7.05;3.35;;;;;;;7.13;67.48;102116.66;5032995;28;20026;-82
2020/12/26 11:12:34;;;;;;;6.93;3.35;;;;;;;7.04;67.67;102109.50;5027697;28;20030;-82
2020/12/26 11:15:00;;;;;;;7.68;3.33;;;;;;;7.11;67.89;102108.72;5032370;28;20041;-80
2020/12/26 11:17:26;;;;;;;5.95;3.42;;;;;;;7.19;67.46;102100.03;5032649;28;20060;-80
2020/12/26 11:19:52;;;;;;;7.10;3.50;;;;;;;7.20;67.69;102096.53;5030709;28;20033;-88
2020/12/26 11:22:18;;;;;;;5.50;3.22;;;;;;;7.13;67.80;102096.44;5015728;28;20034;-81
2020/12/26 11:24:45;;;;;;;8.77;3.50;;;;;;;6.99;68.24;102091.84;5032570;28;20045;-80
2020/12/26 11:27:11;;;;;;;5.75;3.45;;;;;;;7.35;67.42;102083.59;5029128;28;20025;-80
2020/12/26 11:29:37;;;;;;;8.15;3.80;;;;;;;7.38;67.03;102065.16;5028388;28;20112;-80
2020/12/26 11:32:03;;;;;;;9.27;4.20;;;;;;;7.37;67.34;102055.47;5032493;28;20030;-80
2020/12/26 11:34:29;;;;;;;6.38;3.97;;;;;;;7.41;67.18;102061.66;5026723;28;20030;-83
2020/12/26 11:36:55;;;;;;;10.85;4.10;;;;;;;7.20;67.51;102052.63;5031532;28;20036;-80
2020/12/26 11:39:21;;;;;;;9.23;3.50;;;;;;;7.19;67.53;102040.31;5032539;28;20036;-81
2020/12/26 11:41:47;;;;;;;11.30;4.47;;;;;;;7.24;67.22;102035.97;5030534;28;20049;-82
2020/12/26 11:44:14;;;;;;;8.50;3.47;;;;;;;7.19;67.44;102031.50;5020333;28;20409;-80
2020/12/26 11:46:40;;;;;;;5.47;3.80;;;;;;;7.33;67.26;102018.50;5025117;28;20040;-83
2020/12/26 11:49:06;;;;;;;5.70;3.30;;;;;;;7.24;67.22;102014.00;5026531;28;20046;-81
2020/12/26 11:51:33;;;;;;;6.65;3.42;;;;;;;7.43;66.96;101999.31;5023123;28;20030;-83
2020/12/26 11:53:59;;;;;;;8.82;4.43;;;;;;;7.48;66.62;101994.06;5028419;28;20037;-81
2020/12/26 11:56:26;;;;;;;8.90;4.20;;;;;;;7.00;66.68;101977.69;5031783;28;20055;-83
2020/12/26 11:58:52;;;;;;;5.43;2.90;;;;;;;7.13;66.65;101975.22;5031561;28;20041;-90
2020/12/26 12:01:20;;;;;;;8.45;3.55;;;;;;;7.22;67.15;101978.84;5028504;28;20036;-85
2020/12/26 12:03:47;;;;;;;8.27;2.83;;;;;;;7.28;66.60;101963.97;5026092;28;20109;-80
2020/12/26 12:06:14;;;;;;;9.90;3.90;;;;;;;7.48;66.58;101959.78;5023935;28;20476;-80